• Join FlightAware (Why Join?)
  • Login
  • US Flag 
11:50AM EST


 

Airport Tracker/Info


-or-


 

Live Flight TrackerFlight Track Log ✈ AMF9313 ✈ 09-May-2013 ✈ KSDF - KMQY

Flight Track Log - Related Links

Times and Time Zones

All times are in EDT time to prevent confusion due to time zone crossing. See the AMF9313 flight status page for this flight to view local times or setup timezone preferences in your user account.

Time Position Orientation Groundspeed Altitude Reporting Facility
EDT Latitude Longitude Course Direction KTS MPH feet Rate Location/Type
05:55AM 38.1167 -85.8167 232° Southwest 179 206 5,300  Level Louisville TRACON
05:57AM 38.0811 -85.8847 236° Southwest 185 213 7,500 1,200 Climbing Indianapolis Center
05:58AM 38.0569 -85.9514 245° Southwest 205 236 8,000 240 Climbing Indianapolis Center
05:59AM 38.0100 -86.0025 221° Southwest 237 273 8,000  Level Indianapolis Center
06:00AM 37.9433 -86.1361 232° Southwest  Level FlightAware Approximate
06:00AM 37.9458 -86.0278 197° South 239 275 8,000  Level Indianapolis Center
06:01AM 37.9034 -86.2009 232° Southwest  Level FlightAware Approximate
06:01AM 37.8842 -86.0575 201° Southwest 237 273 8,000  Level Indianapolis Center
06:02AM 37.8208 -86.0825 197° South 236 272 8,000  Level Indianapolis Center
06:03AM 37.7586 -86.1075 198° South 235 270 8,000  Level Indianapolis Center
06:04AM 37.6958 -86.1308 196° South 233 268 8,000  Level Indianapolis Center
06:05AM 37.6322 -86.1542 196° South 235 270 8,000  Level Indianapolis Center
06:06AM 37.5672 -86.1642 187° South 234 269 8,000  Level Indianapolis Center
06:07AM 37.5075 -86.1750 188° South 238 274 8,000  Level Indianapolis Center
06:07AM 37.4514 -86.1875 190° South 240 276 8,000  Level Memphis Center
06:08AM 37.3872 -86.2042 192° South 247 284 8,000  Level Memphis Center
06:09AM 37.3211 -86.2206 191° South 247 284 8,000 -60 Level Memphis Center
06:10AM 37.2653 -86.2314 189° South 234 269 7,900  Descending Memphis Center
06:11AM 37.1989 -86.2400 186° South 240 276 8,000  Climbing Memphis Center
06:12AM 37.1350 -86.2589 193° South 240 276 8,000  Level Memphis Center
06:14AM 37.0069 -86.2939 192° South 240 276 8,000  Level Memphis Center
06:15AM 36.9408 -86.3078 190° South 240 276 8,000  Level Memphis Center
06:16AM 36.8767 -86.3214 190° South 235 270 8,000  Level Memphis Center
06:17AM 36.8064 -86.3406 192° South 235 270 8,000  Level Memphis Center
06:18AM 36.7422 -86.3514 188° South 235 270 8,000  Level Memphis Center
06:19AM 36.6758 -86.3675 191° South 235 270 8,000 -480 Level Memphis Center
06:20AM 36.6097 -86.3839 191° South 241 277 7,100 -900 Descending Memphis Center
06:21AM 36.5414 -86.4003 191° South 246 283 6,300 -900 Descending Memphis Center
06:22AM 36.4731 -86.4139 189° South 251 289 5,300 -1,140 Descending Memphis Center
06:23AM 36.4028 -86.4328 192° South 256 295 4,100 -1,080 Descending Memphis Center
06:24AM 36.3408 -86.4433 188° South 256 295 3,200 -600 Descending Memphis Center
06:25AM 36.2744 -86.4594 191° South 250 288 3,000 -300 Descending Memphis Center
06:26AM 36.2189 -86.4775 195° South 226 260 2,700 -480 Descending Memphis Center
06:27AM 36.1608 -86.4958 194° South 218 251 2,100 -540 Descending Memphis Center
06:28AM 36.1053 -86.5139 195° South 202 232 1,700 -300 Descending Memphis Center
06:29AM 36.0575 -86.5186 185° South 187 215 1,500 -600 Descending Memphis Center
06:30AM 36.0219 -86.5203 182° South 152 175 600 -540 Descending Memphis Center
06:31AM 35.9783 -86.5250 185° South 145 167 500 -120 Descending Memphis Center